createdAt,value
2018-07-06T00:01:55.824Z,15.90
2018-07-06T00:04:35.318Z,15.90
2018-07-06T00:07:14.843Z,15.90
2018-07-06T00:09:54.497Z,15.90
2018-07-06T00:12:34.055Z,15.90
2018-07-06T00:15:13.635Z,15.90
2018-07-06T00:17:53.186Z,15.90
2018-07-06T00:20:32.783Z,16.00
2018-07-06T00:23:12.342Z,16.00
2018-07-06T00:25:51.891Z,16.10
2018-07-06T00:28:31.581Z,16.10
2018-07-06T00:31:11.190Z,16.10
2018-07-06T00:33:50.741Z,16.10
2018-07-06T00:36:30.370Z,16.20
2018-07-06T00:39:09.969Z,16.20
2018-07-06T00:41:49.610Z,16.30
2018-07-06T00:44:29.183Z,16.30
2018-07-06T00:47:08.842Z,16.40
2018-07-06T00:49:48.379Z,16.40
2018-07-06T00:52:28.005Z,16.40
2018-07-06T00:55:07.489Z,16.50
2018-07-06T00:57:51.631Z,16.50
2018-07-06T01:00:32.730Z,16.50
2018-07-06T01:03:12.413Z,16.50
2018-07-06T01:05:51.947Z,16.60
2018-07-06T01:08:31.548Z,16.60
2018-07-06T01:11:11.137Z,16.50
2018-07-06T01:13:50.733Z,16.60
2018-07-06T01:16:30.278Z,16.60
2018-07-06T01:19:09.786Z,16.60
2018-07-06T01:21:49.425Z,16.50
2018-07-06T01:24:28.897Z,16.60
2018-07-06T01:27:08.441Z,16.50
2018-07-06T01:29:48.138Z,16.60
2018-07-06T01:32:27.758Z,16.50
2018-07-06T01:35:07.469Z,16.50
2018-07-06T01:37:47.010Z,16.50
2018-07-06T01:40:26.587Z,16.50
2018-07-06T01:43:06.102Z,16.50
2018-07-06T01:45:45.759Z,16.40
2018-07-06T01:48:25.433Z,16.40
2018-07-06T01:51:05.030Z,16.40
2018-07-06T01:53:44.729Z,16.40
2018-07-06T01:56:24.482Z,16.40
2018-07-06T01:59:04.164Z,16.40
2018-07-06T02:01:43.777Z,16.40
2018-07-06T02:04:23.293Z,16.40
2018-07-06T02:07:02.911Z,16.40
2018-07-06T02:09:42.478Z,16.40
2018-07-06T02:12:22.093Z,16.40
2018-07-06T02:15:01.586Z,16.30
2018-07-06T02:17:41.099Z,16.30
2018-07-06T02:20:20.686Z,16.30
2018-07-06T02:23:00.235Z,16.30
2018-07-06T02:28:13.558Z,16.30
2018-07-06T02:30:53.136Z,16.30
2018-07-06T02:33:32.617Z,16.30
2018-07-06T02:36:12.401Z,16.30
2018-07-06T02:38:52.027Z,16.30
2018-07-06T02:41:31.486Z,16.30
2018-07-06T02:44:11.813Z,16.30
2018-07-06T02:46:51.402Z,16.30
2018-07-06T02:49:30.989Z,16.30
2018-07-06T02:52:10.591Z,16.20
2018-07-06T02:54:50.247Z,16.20
2018-07-06T02:57:29.991Z,16.20
2018-07-06T03:00:09.846Z,16.20
2018-07-06T03:02:49.481Z,16.20
2018-07-06T03:05:29.114Z,16.20
2018-07-06T03:08:08.738Z,16.20
2018-07-06T03:10:48.234Z,16.20
2018-07-06T03:13:27.820Z,16.20
2018-07-06T03:16:07.441Z,16.10
2018-07-06T03:18:47.098Z,16.20
2018-07-06T03:21:26.642Z,16.10
2018-07-06T03:24:06.108Z,16.20
2018-07-06T03:26:45.726Z,16.20
2018-07-06T03:29:25.217Z,16.20
2018-07-06T03:32:04.805Z,16.20
2018-07-06T03:34:44.378Z,16.10
2018-07-06T03:37:24.064Z,16.20
2018-07-06T03:40:03.862Z,16.20
2018-07-06T03:42:43.530Z,16.20
2018-07-06T03:45:23.094Z,16.20
2018-07-06T03:48:02.769Z,16.20
2018-07-06T03:50:42.190Z,16.20
2018-07-06T03:53:21.735Z,16.20
2018-07-06T03:56:01.292Z,16.20
2018-07-06T03:58:40.950Z,16.10
2018-07-06T04:01:20.587Z,16.10
2018-07-06T04:04:00.174Z,16.10
2018-07-06T04:06:39.817Z,16.10
2018-07-06T04:09:19.505Z,16.10
2018-07-06T04:11:59.113Z,16.10
2018-07-06T04:17:12.306Z,16.10
2018-07-06T04:19:52.553Z,16.00
2018-07-06T04:22:32.022Z,16.10
2018-07-06T04:25:11.507Z,16.00
2018-07-06T04:27:51.053Z,16.00
2018-07-06T04:30:30.699Z,16.00
2018-07-06T04:33:10.173Z,16.00
2018-07-06T04:35:49.718Z,16.00
2018-07-06T04:38:29.268Z,16.00
2018-07-06T04:41:08.797Z,16.00
2018-07-06T04:43:48.418Z,16.10
2018-07-06T04:46:29.317Z,16.00
2018-07-06T04:49:08.906Z,16.10
2018-07-06T04:51:48.522Z,16.10
2018-07-06T04:54:28.055Z,16.10
2018-07-06T04:57:07.677Z,16.10
2018-07-06T04:59:47.384Z,16.20
2018-07-06T05:02:27.014Z,16.20
2018-07-06T05:05:06.595Z,16.20
2018-07-06T05:07:46.160Z,16.20
2018-07-06T05:12:59.291Z,16.20
2018-07-06T05:15:38.740Z,16.20
2018-07-06T05:18:18.335Z,16.20
2018-07-06T05:20:57.866Z,16.20
2018-07-06T05:23:37.383Z,16.20
2018-07-06T05:26:17.049Z,16.20
2018-07-06T05:28:56.830Z,16.20
2018-07-06T05:31:37.090Z,16.20
2018-07-06T05:34:16.717Z,16.30
2018-07-06T05:36:56.386Z,16.20
2018-07-06T05:39:35.872Z,16.30
2018-07-06T05:42:15.375Z,16.30
2018-07-06T05:44:54.839Z,16.30
2018-07-06T05:47:34.385Z,16.30
2018-07-06T05:50:14.083Z,16.40
2018-07-06T05:52:53.590Z,16.40
2018-07-06T05:55:33.211Z,16.40
2018-07-06T05:58:12.731Z,16.40
2018-07-06T06:03:26.045Z,16.50
2018-07-06T06:06:05.681Z,16.60
2018-07-06T06:08:32.981Z,16.70
2018-07-06T06:13:29.750Z,16.90
2018-07-06T06:15:58.194Z,17.00
2018-07-06T06:18:26.726Z,17.10
2018-07-06T06:20:55.178Z,17.20
2018-07-06T06:23:23.658Z,17.30
2018-07-06T06:25:52.126Z,17.50
2018-07-06T06:28:20.721Z,17.60
2018-07-06T06:30:49.280Z,17.70
2018-07-06T06:33:17.739Z,17.90
2018-07-06T06:35:46.741Z,18.00
2018-07-06T06:38:15.204Z,18.10
2018-07-06T06:40:43.692Z,18.20
2018-07-06T06:43:12.429Z,18.20
2018-07-06T06:45:41.090Z,18.30
2018-07-06T06:48:09.557Z,18.40
2018-07-06T06:50:38.051Z,18.50
2018-07-06T06:53:06.753Z,18.60
2018-07-06T06:55:35.219Z,18.60
2018-07-06T06:58:03.974Z,18.60
2018-07-06T07:00:32.462Z,18.60
2018-07-06T07:03:00.969Z,18.60
2018-07-06T07:05:29.504Z,18.60
2018-07-06T07:07:57.951Z,18.60
2018-07-06T07:10:26.426Z,18.70
2018-07-06T07:12:54.934Z,18.70
2018-07-06T07:15:23.430Z,18.80
2018-07-06T07:17:51.965Z,18.80
2018-07-06T07:20:20.501Z,18.80
2018-07-06T07:22:49.022Z,18.80
2018-07-06T07:25:17.605Z,18.90
2018-07-06T07:27:46.210Z,19.10
2018-07-06T07:30:14.736Z,19.10
2018-07-06T07:32:43.191Z,19.20
2018-07-06T07:35:11.722Z,19.20
2018-07-06T07:37:40.150Z,19.20
2018-07-06T07:40:08.616Z,19.20
2018-07-06T07:42:37.180Z,19.20
2018-07-06T07:45:05.921Z,19.20
2018-07-06T07:47:34.750Z,19.10
2018-07-06T07:50:03.290Z,19.10
2018-07-06T07:52:42.920Z,19.10
2018-07-06T07:55:11.504Z,19.10
2018-07-06T07:57:40.014Z,19.20
2018-07-06T08:00:08.462Z,19.30
2018-07-06T08:02:36.998Z,19.30
2018-07-06T08:05:05.522Z,19.30
2018-07-06T08:07:33.998Z,19.20
2018-07-06T08:14:59.118Z,18.90
2018-07-06T08:17:27.635Z,18.80
2018-07-06T08:19:56.090Z,18.70
2018-07-06T08:22:24.526Z,18.70
2018-07-06T08:24:52.993Z,18.60
2018-07-06T08:27:21.466Z,18.60
2018-07-06T08:29:49.917Z,18.60
2018-07-06T08:32:18.546Z,18.60
2018-07-06T08:34:58.229Z,18.60
2018-07-06T08:37:45.677Z,18.60
2018-07-06T08:40:14.365Z,18.60
2018-07-06T08:42:46.983Z,18.60
2018-07-06T08:45:15.493Z,18.60
2018-07-06T08:47:44.557Z,18.70
2018-07-06T08:50:13.201Z,18.70
2018-07-06T08:52:42.830Z,18.80
2018-07-06T08:55:11.286Z,18.80
2018-07-06T08:57:40.678Z,18.80
2018-07-06T09:00:10.351Z,18.80
2018-07-06T09:02:38.812Z,18.90
2018-07-06T09:05:08.048Z,18.90
2018-07-06T09:07:36.754Z,18.90
2018-07-06T09:10:05.198Z,18.80
2018-07-06T09:12:33.670Z,18.80
2018-07-06T09:17:30.834Z,18.70
2018-07-06T09:20:00.346Z,18.70
2018-07-06T09:22:28.838Z,18.70
2018-07-06T09:24:58.562Z,18.70
2018-07-06T09:27:27.046Z,18.70
2018-07-06T09:29:55.614Z,18.70
2018-07-06T09:32:24.055Z,18.70
2018-07-06T09:34:52.525Z,18.60
2018-07-06T09:37:20.998Z,18.60
2018-07-06T09:39:50.376Z,18.60
2018-07-06T09:42:19.185Z,18.60
2018-07-06T09:44:47.674Z,18.60
2018-07-06T09:47:16.280Z,18.60
2018-07-06T09:49:44.789Z,18.70
2018-07-06T09:52:13.501Z,18.70
2018-07-06T09:54:41.726Z,18.70
2018-07-06T09:57:10.227Z,18.70
2018-07-06T09:59:38.667Z,18.60
2018-07-06T10:02:07.285Z,18.50
2018-07-06T10:04:35.835Z,18.50
2018-07-06T10:07:04.316Z,18.50
2018-07-06T10:09:32.884Z,18.50
2018-07-06T10:12:01.411Z,18.50
2018-07-06T10:14:29.885Z,18.50
2018-07-06T10:16:58.397Z,18.60
2018-07-06T10:19:26.928Z,18.60
2018-07-06T10:21:55.604Z,18.60
2018-07-06T10:24:24.051Z,18.70
2018-07-06T10:26:52.648Z,18.80
2018-07-06T10:29:33.458Z,18.90
2018-07-06T10:32:25.952Z,19.00
2018-07-06T10:34:54.559Z,19.10
2018-07-06T10:37:23.561Z,19.20
2018-07-06T10:39:52.413Z,19.40
2018-07-06T10:42:20.838Z,19.50
2018-07-06T10:44:49.418Z,19.60
2018-07-06T10:47:17.917Z,19.70
2018-07-06T10:49:46.442Z,19.80
2018-07-06T10:52:15.809Z,19.70
2018-07-06T10:54:44.859Z,19.80
2018-07-06T10:57:13.535Z,19.90
2018-07-06T10:59:42.045Z,19.90
2018-07-06T11:02:10.590Z,19.90
2018-07-06T11:04:39.147Z,19.80
2018-07-06T11:07:07.629Z,19.90
2018-07-06T11:09:36.282Z,19.90
2018-07-06T11:12:04.762Z,20.00
2018-07-06T11:14:33.226Z,20.00
2018-07-06T11:17:01.876Z,20.10
2018-07-06T11:19:30.329Z,20.10
2018-07-06T11:21:58.785Z,20.00
2018-07-06T11:24:27.294Z,20.00
2018-07-06T11:26:55.812Z,20.10
2018-07-06T11:29:24.288Z,20.20
2018-07-06T11:31:52.857Z,20.30
2018-07-06T11:34:21.789Z,20.40
2018-07-06T11:36:50.281Z,20.50
2018-07-06T11:39:18.889Z,20.60
2018-07-06T11:41:47.467Z,20.70
2018-07-06T11:44:15.929Z,20.70
2018-07-06T11:46:44.434Z,20.80
2018-07-06T11:49:12.906Z,20.90
2018-07-06T11:51:41.498Z,20.90
2018-07-06T11:54:09.998Z,21.00
2018-07-06T11:56:38.481Z,21.10
2018-07-06T11:59:06.958Z,21.10
2018-07-06T12:01:35.487Z,21.10
2018-07-06T12:04:04.139Z,21.10
2018-07-06T12:06:32.637Z,21.10
2018-07-06T12:09:01.266Z,21.20
2018-07-06T12:11:30.266Z,21.30
2018-07-06T12:13:58.734Z,21.70
2018-07-06T12:16:27.218Z,22.20
2018-07-06T12:18:55.696Z,22.60
2018-07-06T12:21:24.249Z,23.00
2018-07-06T12:23:52.906Z,23.30
2018-07-06T12:26:21.427Z,23.40
2018-07-06T12:28:49.889Z,23.50
2018-07-06T12:31:18.458Z,23.50
2018-07-06T12:33:47.366Z,23.50
2018-07-06T12:36:15.999Z,23.50
2018-07-06T12:38:44.433Z,23.40
2018-07-06T12:41:12.939Z,23.30
2018-07-06T12:43:41.414Z,23.30
2018-07-06T12:46:09.938Z,23.20
2018-07-06T12:48:41.892Z,23.30
2018-07-06T12:51:14.536Z,23.30
2018-07-06T12:53:46.652Z,23.30
2018-07-06T12:56:19.669Z,23.30
2018-07-06T12:58:50.677Z,23.30
2018-07-06T13:01:24.553Z,23.40
2018-07-06T13:04:01.297Z,23.60
2018-07-06T13:06:34.561Z,24.00
2018-07-06T13:09:03.191Z,24.00
2018-07-06T13:11:31.642Z,24.10
2018-07-06T13:14:00.122Z,24.10
2018-07-06T13:16:28.594Z,24.20
2018-07-06T13:18:57.141Z,24.20
2018-07-06T13:21:25.646Z,24.30
2018-07-06T13:23:54.094Z,24.20
2018-07-06T13:26:22.582Z,24.30
2018-07-06T13:28:51.162Z,24.30
2018-07-06T13:31:19.600Z,24.30
2018-07-06T13:33:48.191Z,24.20
2018-07-06T13:36:16.682Z,24.30
2018-07-06T13:38:45.130Z,24.30
2018-07-06T13:41:13.601Z,24.20
2018-07-06T13:43:42.090Z,24.30
2018-07-06T13:46:10.670Z,24.20
2018-07-06T13:48:39.149Z,24.10
2018-07-06T13:51:07.823Z,24.10
2018-07-06T13:53:36.374Z,24.20
2018-07-06T13:56:05.063Z,24.30
2018-07-06T13:58:33.580Z,24.40
2018-07-06T14:01:02.079Z,24.40
2018-07-06T14:03:30.510Z,24.40
2018-07-06T14:05:59.090Z,24.50
2018-07-06T14:08:27.545Z,24.40
2018-07-06T14:10:55.986Z,24.40
2018-07-06T14:13:24.533Z,24.40
2018-07-06T14:15:53.079Z,24.50
2018-07-06T14:18:21.546Z,24.50
2018-07-06T14:20:50.075Z,24.50
2018-07-06T14:23:18.512Z,24.50
2018-07-06T14:25:46.974Z,24.50
2018-07-06T14:28:15.468Z,24.50
2018-07-06T14:30:44.055Z,24.50
2018-07-06T14:33:12.518Z,24.50
2018-07-06T14:42:25.522Z,24.50
2018-07-06T14:44:54.854Z,24.30
2018-07-06T14:47:23.282Z,24.30
2018-07-06T14:49:51.781Z,24.40
2018-07-06T14:52:20.333Z,24.50
2018-07-06T14:54:48.797Z,24.60
2018-07-06T14:57:17.435Z,24.70
2018-07-06T14:59:46.058Z,24.70
2018-07-06T15:02:14.643Z,24.70
2018-07-06T15:04:43.148Z,24.70
2018-07-06T15:07:11.782Z,24.70
2018-07-06T15:09:40.273Z,24.70
2018-07-06T15:12:08.846Z,24.70
2018-07-06T15:14:37.306Z,24.80
2018-07-06T15:17:05.797Z,24.80
2018-07-06T15:19:34.521Z,24.80
2018-07-06T15:22:03.006Z,24.90
2018-07-06T15:24:31.475Z,24.80
2018-07-06T15:26:59.994Z,24.80
2018-07-06T15:29:28.483Z,24.80
2018-07-06T15:31:56.990Z,24.80
2018-07-06T15:34:25.521Z,25.00
2018-07-06T15:36:53.989Z,25.00
2018-07-06T15:39:22.493Z,25.10
2018-07-06T15:41:51.795Z,25.20
2018-07-06T15:46:48.616Z,25.50
2018-07-06T15:49:17.242Z,25.60
2018-07-06T15:54:14.589Z,25.60
2018-07-06T15:56:43.174Z,25.90
2018-07-06T15:59:11.766Z,26.20
2018-07-06T16:01:43.409Z,26.60
2018-07-06T16:04:12.011Z,27.10
2018-07-06T16:06:40.510Z,27.50
2018-07-06T16:09:09.054Z,27.90
2018-07-06T16:11:39.070Z,28.40
2018-07-06T16:14:07.841Z,28.90
2018-07-06T16:16:36.402Z,29.20
2018-07-06T16:19:05.050Z,29.50
2018-07-06T16:21:33.646Z,29.90
2018-07-06T16:24:02.107Z,30.00
2018-07-06T16:26:30.622Z,30.50
2018-07-06T16:28:59.481Z,31.10
2018-07-06T16:31:27.938Z,31.40
2018-07-06T16:33:56.614Z,31.50
2018-07-06T16:36:25.108Z,31.70
2018-07-06T16:38:53.638Z,31.90
2018-07-06T16:41:22.180Z,32.20
2018-07-06T16:43:50.614Z,32.40
2018-07-06T16:46:19.610Z,32.50
2018-07-06T16:48:48.105Z,32.60
2018-07-06T16:51:16.633Z,32.60
2018-07-06T16:53:45.129Z,32.60
2018-07-06T16:56:13.655Z,32.40
2018-07-06T16:58:42.366Z,32.40
2018-07-06T17:01:10.909Z,32.30
2018-07-06T17:03:39.384Z,32.30
2018-07-06T17:06:07.925Z,32.10
2018-07-06T17:08:36.428Z,32.00
2018-07-06T17:11:04.970Z,32.10
2018-07-06T17:13:33.454Z,31.90
2018-07-06T17:16:02.094Z,31.80
2018-07-06T17:18:30.618Z,31.80
2018-07-06T17:20:59.284Z,31.70
2018-07-06T17:23:27.741Z,31.60
2018-07-06T17:25:56.266Z,31.40
2018-07-06T17:28:24.733Z,31.30
2018-07-06T17:30:53.233Z,31.10
2018-07-06T17:33:21.705Z,31.10
2018-07-06T17:35:50.267Z,31.10
2018-07-06T17:38:18.855Z,31.00
2018-07-06T17:40:47.413Z,30.90
2018-07-06T17:43:16.126Z,30.90
2018-07-06T17:45:44.843Z,30.80
2018-07-06T17:48:13.339Z,30.50
2018-07-06T17:50:41.838Z,30.30
2018-07-06T17:53:10.438Z,30.10
2018-07-06T17:55:38.946Z,29.50
2018-07-06T17:58:07.554Z,28.70
2018-07-06T18:00:36.057Z,28.00
2018-07-06T18:03:04.558Z,27.20
2018-07-06T18:05:33.107Z,26.20
2018-07-06T18:08:01.754Z,25.30
2018-07-06T18:10:30.399Z,24.70
2018-07-06T18:12:58.837Z,24.10
2018-07-06T18:15:27.404Z,23.80
2018-07-06T18:17:55.950Z,23.40
2018-07-06T18:20:24.449Z,23.10
2018-07-06T18:25:21.082Z,22.50
2018-07-06T18:27:49.509Z,22.30
2018-07-06T18:30:17.975Z,22.10
2018-07-06T18:32:46.522Z,21.90
2018-07-06T18:35:15.022Z,21.80
2018-07-06T18:37:43.560Z,21.60
2018-07-06T18:40:12.102Z,21.50
2018-07-06T18:45:08.881Z,21.30
2018-07-06T18:47:37.447Z,21.20
2018-07-06T18:50:05.882Z,21.10
2018-07-06T18:52:34.302Z,21.00
2018-07-06T18:55:02.802Z,20.90
2018-07-06T18:57:31.337Z,20.70
2018-07-06T18:59:59.762Z,20.60
2018-07-06T19:02:28.359Z,20.50
2018-07-06T19:04:57.029Z,20.40
2018-07-06T19:07:25.593Z,20.30
2018-07-06T19:09:54.129Z,20.20
2018-07-06T19:12:23.239Z,20.10
2018-07-06T19:14:51.721Z,19.90
2018-07-06T19:17:20.231Z,19.80
2018-07-06T19:19:48.691Z,19.70
2018-07-06T19:22:17.158Z,19.60
2018-07-06T19:24:45.803Z,19.40
2018-07-06T19:27:14.254Z,19.30
2018-07-06T19:29:42.754Z,19.30
2018-07-06T19:32:11.417Z,19.20
2018-07-06T19:34:39.965Z,19.10
2018-07-06T19:37:08.530Z,19.00
2018-07-06T19:39:37.054Z,18.90
2018-07-06T19:42:05.583Z,18.80
2018-07-06T19:44:34.054Z,18.70
2018-07-06T19:47:02.948Z,18.60
2018-07-06T19:49:31.686Z,18.50
2018-07-06T19:52:00.159Z,18.50
2018-07-06T19:54:28.846Z,18.40
2018-07-06T19:56:57.347Z,18.30
2018-07-06T19:59:25.786Z,18.30
2018-07-06T20:01:54.375Z,18.20
2018-07-06T20:04:22.974Z,18.10
2018-07-06T20:06:51.534Z,18.00
2018-07-06T20:09:20.291Z,17.90
2018-07-06T20:11:48.792Z,17.90
2018-07-06T20:14:17.282Z,17.80
2018-07-06T20:16:46.026Z,17.70
2018-07-06T20:19:14.589Z,17.60
2018-07-06T20:21:43.074Z,17.60
2018-07-06T20:24:11.582Z,17.50
2018-07-06T20:26:40.039Z,17.40
2018-07-06T20:29:08.502Z,17.30
2018-07-06T20:31:37.029Z,17.30
2018-07-06T20:34:05.754Z,17.20
2018-07-06T20:36:34.339Z,17.20
2018-07-06T20:39:02.959Z,17.20
2018-07-06T20:41:31.400Z,17.10
2018-07-06T20:43:59.964Z,17.10
2018-07-06T20:46:28.712Z,17.10
2018-07-06T20:48:57.189Z,17.00
2018-07-06T20:51:25.837Z,17.00
2018-07-06T20:53:54.366Z,17.00
2018-07-06T20:56:22.817Z,17.00
2018-07-06T20:58:51.295Z,16.90
2018-07-06T21:01:19.802Z,16.90
2018-07-06T21:03:48.266Z,16.90
2018-07-06T21:06:16.898Z,16.80
2018-07-06T21:08:45.394Z,16.80
2018-07-06T21:11:13.948Z,16.70
2018-07-06T21:13:42.464Z,16.70
2018-07-06T21:18:39.148Z,16.60
2018-07-06T21:21:07.614Z,16.50
2018-07-06T21:23:36.069Z,16.50
2018-07-06T21:26:04.534Z,16.50
2018-07-06T21:28:32.971Z,16.50
2018-07-06T21:31:01.530Z,16.50
2018-07-06T21:33:30.591Z,16.50
2018-07-06T21:35:59.184Z,16.40
2018-07-06T21:38:27.547Z,16.40
2018-07-06T21:40:56.106Z,16.30
2018-07-06T21:43:24.556Z,16.30
2018-07-06T21:45:53.106Z,16.30
2018-07-06T21:48:21.660Z,16.20
2018-07-06T21:50:50.422Z,16.20
2018-07-06T21:53:18.950Z,16.20
2018-07-06T21:55:47.724Z,16.20
2018-07-06T21:58:16.179Z,16.10
2018-07-06T22:00:44.654Z,16.10
2018-07-06T22:03:13.163Z,16.10
2018-07-06T22:05:42.383Z,16.00
2018-07-06T22:08:10.969Z,16.00
2018-07-06T22:10:39.432Z,16.00
2018-07-06T22:13:08.247Z,16.00
2018-07-06T22:15:44.652Z,15.90
2018-07-06T22:18:14.815Z,15.90
2018-07-06T22:20:44.206Z,15.90
2018-07-06T22:23:13.034Z,15.90
2018-07-06T22:25:41.779Z,15.80
2018-07-06T22:28:10.712Z,15.80
2018-07-06T22:30:39.305Z,15.70
2018-07-06T22:33:07.721Z,15.70
2018-07-06T22:35:36.541Z,15.70
2018-07-06T22:40:34.760Z,15.60
2018-07-06T22:43:03.206Z,15.60
2018-07-06T22:45:31.831Z,15.60
2018-07-06T22:48:00.709Z,15.50
2018-07-06T22:50:30.082Z,15.60
2018-07-06T22:52:58.579Z,15.50
2018-07-06T22:55:27.342Z,15.50
2018-07-06T22:57:55.926Z,15.40
2018-07-06T23:00:24.435Z,15.40
2018-07-06T23:02:53.678Z,15.40
2018-07-06T23:05:22.105Z,15.40
2018-07-06T23:07:50.606Z,15.40
2018-07-06T23:10:19.168Z,15.30
2018-07-06T23:12:47.609Z,15.30
2018-07-06T23:15:16.167Z,15.30
2018-07-06T23:20:12.810Z,15.20
2018-07-06T23:23:03.214Z,15.20
2018-07-06T23:25:33.475Z,15.20
2018-07-06T23:28:01.922Z,15.10
2018-07-06T23:30:30.511Z,15.10
2018-07-06T23:33:00.246Z,15.10
2018-07-06T23:35:28.854Z,15.00
2018-07-06T23:37:57.448Z,15.00
2018-07-06T23:40:25.906Z,14.90
2018-07-06T23:42:54.496Z,14.90
2018-07-06T23:45:23.310Z,14.90
2018-07-06T23:47:51.760Z,14.80
2018-07-06T23:50:20.745Z,14.80
2018-07-06T23:52:49.289Z,14.80
2018-07-06T23:55:18.063Z,14.80
2018-07-06T23:57:46.897Z,14.80
